Time;durP1;ratioP1;P1;durP2;ratioP2;P2;SDS_P1;SDS_P2;PMS_P1;PMS_P2;Temp;Humidity;BMP_temperature;BMP_pressure;BME280_temperature;BME280_humidity;BME280_pressure;Samples;Min_cycle;Max_cycle;Signal;HPM_P1;HPM_P2
2022/04/28 00:02:11;;;;;;;50.40;20.07;;;8.10;37.00;;;;;;5098237;28;21006;-61
2022/04/28 00:04:38;;;;;;;52.40;21.20;;;8.10;37.10;;;;;;5097176;28;20466;-61
2022/04/28 00:07:05;;;;;;;50.63;20.70;;;8.10;37.20;;;;;;5098090;28;20514;-61
2022/04/28 00:09:33;;;;;;;52.50;21.40;;;8.10;37.80;;;;;;5093892;28;20463;-61
2022/04/28 00:12:00;;;;;;;53.43;22.07;;;8.00;37.20;;;;;;5098375;28;21185;-61
2022/04/28 00:14:27;;;;;;;51.80;22.97;;;8.00;37.20;;;;;;5096116;28;20460;-61
2022/04/28 00:16:53;;;;;;;54.63;24.20;;;7.90;37.40;;;;;;5089421;28;20452;-61
2022/04/28 00:19:20;;;;;;;55.10;22.73;;;7.90;37.60;;;;;;5096916;28;20502;-61
2022/04/28 00:21:47;;;;;;;52.73;21.57;;;7.90;38.00;;;;;;5095709;28;20547;-61
2022/04/28 00:24:14;;;;;;;56.77;23.30;;;7.90;37.90;;;;;;5089706;28;20997;-60
2022/04/28 00:26:42;;;;;;;52.03;21.63;;;7.80;38.30;;;;;;5095471;28;20941;-61
2022/04/28 00:29:09;;;;;;;52.73;23.63;;;7.80;38.20;;;;;;5100532;28;20475;-63
2022/04/28 00:31:35;;;;;;;55.70;23.80;;;7.80;38.50;;;;;;5090423;28;20467;-61
2022/04/28 00:34:03;;;;;;;54.00;23.23;;;7.80;38.90;;;;;;5095743;28;20474;-60
2022/04/28 00:36:29;;;;;;;56.43;24.77;;;7.80;38.60;;;;;;5101257;28;20490;-61
2022/04/28 00:38:56;;;;;;;54.50;23.23;;;7.80;38.80;;;;;;5096063;28;21094;-60
2022/04/28 00:41:23;;;;;;;51.50;21.83;;;7.70;38.90;;;;;;5097701;28;20455;-61
2022/04/28 00:43:52;;;;;;;50.10;21.47;;;7.70;39.20;;;;;;5098665;28;20479;-61
2022/04/28 00:46:19;;;;;;;51.90;22.37;;;7.70;39.30;;;;;;5099476;28;20455;-60
2022/04/28 00:51:32;;;;;;;53.67;22.40;;;7.70;39.10;;;;;;5101063;28;20970;-61
2022/04/28 00:53:59;;;;;;;53.90;22.93;;;7.60;39.20;;;;;;5098630;28;20459;-59
2022/04/28 00:56:27;;;;;;;55.80;22.37;;;7.60;39.20;;;;;;5090601;28;20455;-61
2022/04/28 00:58:57;;;;;;;52.67;23.00;;;7.60;39.30;;;;;;5099247;28;20502;-61
2022/04/28 01:01:23;;;;;;;52.57;22.83;;;7.60;39.60;;;;;;5101647;28;20471;-61
2022/04/28 01:03:50;;;;;;;51.43;21.63;;;7.60;39.10;;;;;;5097543;28;20460;-61
2022/04/28 01:06:17;;;;;;;53.33;21.40;;;7.50;39.30;;;;;;5103287;28;20466;-60
2022/04/28 01:08:44;;;;;;;52.73;21.40;;;7.50;39.30;;;;;;5099882;28;20467;-59
2022/04/28 01:11:10;;;;;;;48.97;20.40;;;7.50;39.50;;;;;;5099575;28;20819;-60
2022/04/28 01:13:37;;;;;;;52.20;20.20;;;7.50;39.60;;;;;;5105789;28;20464;-61
2022/04/28 01:16:05;;;;;;;52.37;20.00;;;7.50;39.80;;;;;;5100103;28;20546;-61
2022/04/28 01:18:32;;;;;;;52.50;20.33;;;7.50;39.90;;;;;;5099160;28;20480;-63
2022/04/28 01:21:03;;;;;;;51.03;21.20;;;7.40;39.80;;;;;;5105584;28;20479;-62
2022/04/28 01:23:32;;;;;;;51.77;20.70;;;7.40;39.80;;;;;;5102087;28;20451;-60
2022/04/28 01:25:59;;;;;;;50.40;20.10;;;7.40;39.80;;;;;;5097781;28;20674;-62
2022/04/28 01:28:27;;;;;;;47.37;17.17;;;7.40;39.90;;;;;;5096365;28;20494;-60
2022/04/28 01:30:54;;;;;;;49.90;19.40;;;7.40;40.00;;;;;;5097514;28;20460;-60
2022/04/28 01:33:21;;;;;;;49.20;18.43;;;7.40;39.80;;;;;;5105401;28;20466;-63
2022/04/28 01:35:48;;;;;;;49.20;17.60;;;7.40;39.80;;;;;;5098939;28;20486;-60
2022/04/28 01:38:16;;;;;;;48.90;18.37;;;7.30;39.90;;;;;;5099096;28;20480;-62
2022/04/28 01:40:44;;;;;;;50.60;19.73;;;7.30;39.80;;;;;;5098458;28;20475;-59
2022/04/28 01:43:11;;;;;;;48.80;18.37;;;7.30;40.00;;;;;;5099556;28;21240;-60
2022/04/28 01:45:38;;;;;;;50.00;19.20;;;7.30;40.10;;;;;;5108769;28;20479;-60
2022/04/28 01:48:05;;;;;;;49.00;18.70;;;7.20;39.80;;;;;;5106162;28;20496;-61
2022/04/28 01:50:32;;;;;;;46.33;16.80;;;7.20;39.90;;;;;;5101030;28;20474;-61
2022/04/28 01:55:44;;;;;;;47.10;16.50;;;7.10;40.30;;;;;;5096952;28;20435;-60
2022/04/28 01:58:11;;;;;;;47.60;16.73;;;7.10;40.50;;;;;;5102767;28;20470;-62
2022/04/28 02:00:38;;;;;;;47.37;17.00;;;7.10;40.50;;;;;;5101253;28;20475;-59
2022/04/28 02:03:06;;;;;;;49.97;19.07;;;7.10;40.30;;;;;;5101499;28;20967;-62
2022/04/28 02:05:34;;;;;;;48.13;17.40;;;7.00;40.60;;;;;;5104879;27;20492;-62
2022/04/28 02:08:01;;;;;;;49.03;18.87;;;7.00;40.30;;;;;;5098526;28;20996;-60
2022/04/28 02:10:27;;;;;;;48.07;18.10;;;7.00;40.70;;;;;;5093538;28;20448;-60
2022/04/28 02:12:55;;;;;;;48.03;18.20;;;6.90;40.50;;;;;;5093988;28;20973;-62
2022/04/28 02:15:22;;;;;;;50.57;19.80;;;6.90;40.60;;;;;;5104719;28;20460;-60
2022/04/28 02:17:49;;;;;;;50.00;18.73;;;6.90;40.60;;;;;;5099088;28;20455;-62
2022/04/28 02:20:16;;;;;;;48.17;17.97;;;6.90;40.60;;;;;;5097977;28;20482;-63
2022/04/28 02:22:42;;;;;;;49.67;18.50;;;6.90;40.70;;;;;;5100286;28;20459;-62
2022/04/28 02:25:10;;;;;;;48.83;18.43;;;6.80;40.70;;;;;;5094580;28;20452;-60
2022/04/28 02:27:36;;;;;;;52.97;20.97;;;6.90;40.80;;;;;;5095591;28;20448;-62
2022/04/28 02:30:06;;;;;;;51.90;20.20;;;6.80;40.50;;;;;;5095324;28;20459;-59
2022/04/28 02:35:13;;;;;;;49.80;18.30;;;6.80;40.70;;;;;;5095410;28;20974;-62
2022/04/28 02:37:40;;;;;;;48.80;17.70;;;6.80;40.70;;;;;;5106120;28;20456;-59
2022/04/28 02:40:08;;;;;;;49.80;17.97;;;6.80;40.70;;;;;;5100199;28;20491;-59
2022/04/28 02:42:35;;;;;;;52.30;18.93;;;6.80;40.80;;;;;;5098916;28;20466;-62
2022/04/28 02:45:02;;;;;;;51.53;18.93;;;6.80;40.60;;;;;;5097151;28;20463;-62
2022/04/28 02:47:30;;;;;;;50.10;19.10;;;6.80;40.70;;;;;;5087889;28;20461;-60
2022/04/28 02:49:56;;;;;;;51.37;19.07;;;6.80;40.70;;;;;;5102139;28;20479;-62
2022/04/28 02:52:23;;;;;;;50.47;19.20;;;6.70;40.60;;;;;;5098137;28;20535;-60
2022/04/28 02:54:50;;;;;;;48.90;18.20;;;6.70;40.60;;;;;;5098251;28;20471;-62
2022/04/28 02:57:17;;;;;;;49.67;19.03;;;6.70;40.50;;;;;;5100388;28;20823;-62
2022/04/28 02:59:43;;;;;;;50.53;19.10;;;6.70;40.60;;;;;;5101733;28;20850;-63
2022/04/28 03:02:10;;;;;;;52.50;18.17;;;6.70;40.50;;;;;;5097891;28;21346;-62
2022/04/28 03:04:38;;;;;;;48.73;17.80;;;6.70;40.60;;;;;;5100023;28;20463;-60
2022/04/28 03:12:37;;;;;;;50.17;17.30;;;6.60;40.60;;;;;;5102035;28;20496;-60
2022/04/28 03:15:05;;;;;;;51.60;18.30;;;6.60;40.60;;;;;;5094586;28;20461;-63
2022/04/28 03:17:33;;;;;;;49.93;18.10;;;6.60;40.80;;;;;;5098537;28;20475;-62
2022/04/28 03:20:01;;;;;;;51.20;19.07;;;6.60;40.60;;;;;;5100526;28;20471;-60
2022/04/28 03:22:28;;;;;;;51.53;19.00;;;6.50;40.60;;;;;;5096696;28;20456;-60
2022/04/28 03:24:55;;;;;;;49.03;18.50;;;6.50;40.60;;;;;;5100266;28;20545;-60
2022/04/28 03:27:22;;;;;;;50.30;19.40;;;6.50;41.00;;;;;;5096628;28;20455;-60
2022/04/28 03:29:49;;;;;;;50.37;19.70;;;6.50;40.70;;;;;;5102557;28;20470;-64
2022/04/28 03:32:16;;;;;;;52.57;19.13;;;6.50;41.10;;;;;;5096842;28;20494;-63
2022/04/28 03:34:42;;;;;;;51.77;19.60;;;6.50;41.50;;;;;;5099044;28;20458;-62
2022/04/28 03:37:10;;;;;;;51.20;19.00;;;6.50;41.20;;;;;;5102541;28;20478;-62
2022/04/28 03:39:38;;;;;;;51.50;19.10;;;6.40;41.30;;;;;;5087978;28;21214;-62
2022/04/28 03:42:06;;;;;;;51.53;19.13;;;6.40;41.30;;;;;;5094345;28;21125;-62
2022/04/28 03:44:33;;;;;;;50.70;19.77;;;6.40;41.40;;;;;;5102873;28;20454;-62
2022/04/28 03:46:59;;;;;;;50.20;19.43;;;6.40;41.40;;;;;;5092489;28;21182;-62
2022/04/28 03:49:26;;;;;;;51.57;20.47;;;6.40;41.30;;;;;;5095301;28;20475;-63
2022/04/28 03:51:53;;;;;;;49.10;17.73;;;6.30;41.30;;;;;;5098799;28;20501;-62
2022/04/28 03:54:21;;;;;;;54.00;21.50;;;6.30;41.40;;;;;;5095218;28;20459;-62
2022/04/28 03:56:48;;;;;;;53.90;18.87;;;6.30;41.80;;;;;;5098263;28;20459;-63
2022/04/28 03:59:15;;;;;;;51.93;19.07;;;6.30;41.60;;;;;;5095394;28;20547;-63
2022/04/28 04:01:42;;;;;;;51.77;20.20;;;6.30;41.90;;;;;;5097065;28;20494;-63
2022/04/28 04:04:09;;;;;;;53.17;19.50;;;6.30;41.90;;;;;;5100202;28;20829;-62
2022/04/28 04:06:36;;;;;;;57.43;20.60;;;6.30;41.90;;;;;;5096277;28;20455;-62
2022/04/28 04:09:02;;;;;;;50.97;20.57;;;6.30;42.00;;;;;;5089365;28;20479;-63
2022/04/28 04:11:30;;;;;;;51.00;19.73;;;6.30;41.90;;;;;;5095770;28;20470;-64
2022/04/28 04:13:57;;;;;;;50.67;19.77;;;6.30;42.10;;;;;;5092953;28;20456;-62
2022/04/28 04:16:24;;;;;;;52.30;20.30;;;6.30;42.00;;;;;;5092027;28;20447;-64
2022/04/28 04:18:50;;;;;;;52.43;21.57;;;6.30;42.10;;;;;;5093991;28;20494;-63
2022/04/28 04:21:19;;;;;;;52.50;18.87;;;6.30;41.80;;;;;;5095409;28;21003;-63
2022/04/28 04:23:45;;;;;;;50.83;19.07;;;6.30;41.90;;;;;;5095274;28;20563;-65
2022/04/28 04:26:12;;;;;;;48.87;17.90;;;6.30;41.70;;;;;;5098986;28;20461;-64
2022/04/28 04:28:40;;;;;;;53.17;19.20;;;6.40;42.20;;;;;;5093165;28;20480;-63
2022/04/28 04:33:51;;;;;;;52.80;20.70;;;6.40;41.40;;;;;;5095510;28;20496;-60
2022/04/28 04:36:18;;;;;;;50.20;20.00;;;6.40;41.30;;;;;;5093680;28;20474;-62
2022/04/28 04:38:44;;;;;;;50.60;19.53;;;6.50;41.30;;;;;;5095582;28;20510;-61
2022/04/28 04:41:11;;;;;;;51.53;19.80;;;6.50;41.40;;;;;;5094388;28;20494;-60
2022/04/28 04:43:40;;;;;;;48.57;18.20;;;6.60;41.30;;;;;;5097821;28;20476;-61
2022/04/28 04:46:07;;;;;;;48.90;18.27;;;6.60;41.10;;;;;;5098004;28;20947;-61
2022/04/28 04:48:34;;;;;;;46.33;17.80;;;6.70;41.00;;;;;;5100609;28;20468;-61
2022/04/28 04:51:02;;;;;;;49.20;18.13;;;6.80;41.00;;;;;;5102744;28;20459;-60
2022/04/28 04:53:29;;;;;;;50.77;17.50;;;6.90;41.40;;;;;;5092769;28;20516;-60
2022/04/28 04:55:56;;;;;;;50.37;19.07;;;7.00;41.60;;;;;;5091709;28;20475;-62
2022/04/28 04:58:23;;;;;;;51.37;20.47;;;7.10;41.30;;;;;;5094316;28;20494;-64
2022/04/28 05:00:52;;;;;;;53.97;19.07;;;7.20;41.20;;;;;;5095167;28;20467;-60
2022/04/28 05:03:19;;;;;;;52.47;19.50;;;7.30;41.20;;;;;;5095012;28;21161;-59
2022/04/28 05:05:46;;;;;;;49.57;18.20;;;7.40;40.90;;;;;;5090744;28;20953;-60
2022/04/28 05:08:14;;;;;;;47.97;20.70;;;7.70;40.60;;;;;;5094472;28;20483;-60
2022/04/28 05:10:41;;;;;;;48.07;19.27;;;8.20;40.10;;;;;;5093838;28;20595;-61
2022/04/28 05:13:09;;;;;;;51.07;19.07;;;8.70;39.30;;;;;;5095632;28;20451;-61
2022/04/28 05:15:35;;;;;;;44.93;18.13;;;9.40;37.80;;;;;;5094615;28;20474;-62
2022/04/28 05:18:04;;;;;;;47.53;17.07;;;10.40;35.60;;;;;;5098199;28;20466;-60
2022/04/28 05:20:31;;;;;;;44.37;16.47;;;11.60;32.70;;;;;;5098510;28;20479;-61
2022/04/28 05:22:58;;;;;;;42.97;16.70;;;12.80;29.40;;;;;;5095264;28;20455;-62
2022/04/28 05:25:25;;;;;;;42.50;17.50;;;14.10;25.90;;;;;;5093890;28;20475;-61
2022/04/28 05:27:52;;;;;;;41.97;15.73;;;15.50;21.90;;;;;;5100966;28;20460;-60
2022/04/28 05:30:18;;;;;;;39.87;15.57;;;16.80;18.60;;;;;;5097400;28;22141;-61
2022/04/28 05:32:45;;;;;;;40.80;15.80;;;18.00;16.30;;;;;;5091569;28;20824;-60
2022/04/28 05:35:13;;;;;;;38.30;13.90;;;19.30;14.30;;;;;;5096323;28;21163;-60
2022/04/28 05:37:40;;;;;;;36.23;14.37;;;20.50;11.80;;;;;;5092526;28;21151;-61
2022/04/28 05:40:10;;;;;;;36.47;14.27;;;21.60;9.70;;;;;;5093976;28;20467;-58
2022/04/28 05:48:06;;;;;;;35.00;13.30;;;24.90;4.60;;;;;;5095345;28;20525;-62
2022/04/28 05:50:34;;;;;;;35.73;12.60;;;25.90;2.70;;;;;;5096930;28;20444;-64
2022/04/28 05:53:01;;;;;;;32.67;12.87;;;26.80;1.50;;;;;;5092477;28;20468;-61
2022/04/28 05:55:28;;;;;;;33.50;13.33;;;27.60;1.10;;;;;;5096825;28;20475;-61
2022/04/28 05:57:55;;;;;;;31.97;11.70;;;28.50;1.00;;;;;;5094971;28;20515;-58
2022/04/28 06:00:23;;;;;;;32.73;12.17;;;29.30;1.00;;;;;;5094967;28;20468;-59
2022/04/28 06:02:49;;;;;;;32.27;11.73;;;29.90;1.00;;;;;;5094659;28;20456;-58
2022/04/28 06:05:16;;;;;;;35.23;12.83;;;30.60;1.00;;;;;;5091107;28;20462;-58
2022/04/28 06:07:44;;;;;;;31.20;12.57;;;31.30;1.00;;;;;;5101270;28;20455;-57
2022/04/28 06:10:12;;;;;;;32.83;12.90;;;31.80;1.00;;;;;;5096335;28;20483;-57
2022/04/28 06:12:39;;;;;;;33.20;11.40;;;32.50;1.00;;;;;;5093467;28;21008;-57
2022/04/28 06:15:07;;;;;;;30.63;11.47;;;33.10;1.00;;;;;;5092539;28;20494;-58
2022/04/28 06:17:33;;;;;;;30.33;11.37;;;33.90;1.00;;;;;;5095887;28;20452;-59
2022/04/28 06:20:00;;;;;;;30.90;12.10;;;34.50;1.00;;;;;;5099144;28;20459;-59
2022/04/28 06:22:27;;;;;;;29.50;12.00;;;35.10;1.00;;;;;;5094469;28;21010;-58
2022/04/28 06:24:56;;;;;;;28.70;10.90;;;35.70;1.00;;;;;;5098229;28;21175;-60
2022/04/28 06:27:23;;;;;;;31.20;11.70;;;36.20;1.00;;;;;;5096171;28;20983;-62
2022/04/28 06:29:50;;;;;;;28.17;10.90;;;36.70;1.00;;;;;;5094074;28;20475;-59
2022/04/28 06:32:17;;;;;;;28.73;12.07;;;37.20;1.00;;;;;;5088984;28;20462;-60
2022/04/28 06:34:44;;;;;;;27.57;10.70;;;37.80;1.00;;;;;;5096650;28;21150;-60
2022/04/28 06:37:11;;;;;;;29.53;11.60;;;38.00;1.00;;;;;;5094037;28;21282;-59
2022/04/28 06:39:38;;;;;;;29.70;12.10;;;38.50;1.00;;;;;;5096755;27;20483;-60
2022/04/28 06:42:07;;;;;;;28.30;11.60;;;38.90;1.00;;;;;;5093370;28;20480;-59
2022/04/28 06:44:34;;;;;;;28.73;12.10;;;39.30;1.00;;;;;;5095618;28;20509;-59
2022/04/28 06:47:01;;;;;;;29.20;12.67;;;39.60;1.00;;;;;;5097966;28;20456;-57
2022/04/28 06:49:27;;;;;;;27.30;10.40;;;40.00;1.00;;;;;;5096890;28;20558;-58
2022/04/28 06:51:54;;;;;;;27.33;11.20;;;40.40;1.00;;;;;;5095527;28;20448;-58
2022/04/28 06:54:21;;;;;;;26.80;10.00;;;40.40;1.00;;;;;;5095817;28;20477;-57
2022/04/28 06:56:48;;;;;;;27.20;10.13;;;40.50;1.00;;;;;;5092817;28;20842;-58
2022/04/28 06:59:16;;;;;;;29.73;11.07;;;40.50;1.00;;;;;;5093359;28;20545;-58
2022/04/28 07:01:43;;;;;;;27.90;11.30;;;40.30;1.00;;;;;;5100540;28;20836;-58
2022/04/28 07:04:09;;;;;;;27.97;11.13;;;40.20;1.00;;;;;;5099284;28;20466;-58
2022/04/28 07:06:36;;;;;;;27.57;10.80;;;40.40;1.00;;;;;;5099416;28;20459;-58
2022/04/28 07:09:03;;;;;;;26.60;10.37;;;40.80;1.00;;;;;;5093983;28;20475;-57
2022/04/28 07:11:30;;;;;;;27.47;10.37;;;40.90;1.00;;;;;;5097808;28;20458;-57
2022/04/28 07:13:56;;;;;;;26.47;10.60;;;40.80;1.00;;;;;;5095044;28;20455;-57
2022/04/28 07:16:24;;;;;;;26.40;10.27;;;40.80;1.00;;;;;;5095128;28;20459;-58
2022/04/28 07:18:51;;;;;;;25.93;10.50;;;41.20;1.00;;;;;;5095299;28;20479;-57
2022/04/28 07:21:18;;;;;;;26.83;10.13;;;41.30;1.00;;;;;;5090735;28;20472;-57
2022/04/28 07:23:45;;;;;;;25.67;9.60;;;41.70;1.00;;;;;;5095415;28;21055;-59
2022/04/28 07:26:11;;;;;;;31.57;9.70;;;42.00;1.00;;;;;;5092462;28;20584;-58
2022/04/28 07:28:38;;;;;;;26.03;9.60;;;42.60;1.00;;;;;;5092706;28;20479;-58
2022/04/28 07:31:05;;;;;;;25.60;9.37;;;43.40;1.00;;;;;;5092095;28;20480;-58
2022/04/28 07:33:34;;;;;;;24.97;9.10;;;44.10;1.00;;;;;;5097137;28;20459;-58
2022/04/28 07:36:00;;;;;;;24.50;8.70;;;44.50;1.00;;;;;;5092365;28;20988;-58
2022/04/28 07:38:27;;;;;;;25.60;9.63;;;44.20;1.00;;;;;;5095299;28;20575;-58
2022/04/28 07:40:55;;;;;;;23.47;8.07;;;44.40;1.00;;;;;;5094784;28;20470;-58
2022/04/28 07:43:22;;;;;;;24.80;8.47;;;44.70;1.00;;;;;;5096477;28;20528;-58
2022/04/28 07:45:49;;;;;;;24.07;8.23;;;44.70;1.00;;;;;;5094246;28;20487;-59
2022/04/28 07:48:16;;;;;;;24.27;8.17;;;45.40;1.00;;;;;;5092800;28;20479;-59
2022/04/28 07:50:44;;;;;;;23.27;8.70;;;45.90;1.00;;;;;;5095137;28;20467;-59
2022/04/28 07:53:11;;;;;;;22.73;7.10;;;46.50;1.00;;;;;;5104159;28;21207;-58
2022/04/28 07:55:37;;;;;;;23.30;7.23;;;47.00;1.00;;;;;;5095836;28;20470;-58
2022/04/28 07:58:04;;;;;;;23.47;7.27;;;47.20;1.00;;;;;;5097474;28;20495;-58
2022/04/28 08:00:31;;;;;;;22.97;6.80;;;47.10;1.00;;;;;;5099381;28;20462;-59
2022/04/28 08:02:58;;;;;;;22.80;6.73;;;47.10;1.00;;;;;;5096105;28;20475;-59
2022/04/28 08:05:25;;;;;;;23.63;6.63;;;46.60;1.00;;;;;;5096993;28;20471;-59
2022/04/28 08:07:53;;;;;;;22.77;6.37;;;45.40;1.00;;;;;;5095042;28;20948;-58
2022/04/28 08:10:19;;;;;;;22.93;6.63;;;44.60;1.00;;;;;;5095899;28;20475;-59
2022/04/28 08:12:46;;;;;;;24.17;7.03;;;44.20;1.00;;;;;;5097916;28;20453;-58
2022/04/28 08:15:13;;;;;;;24.00;6.73;;;45.00;1.00;;;;;;5095155;28;20458;-61
2022/04/28 08:17:40;;;;;;;23.57;7.57;;;46.10;1.00;;;;;;5091386;28;20459;-57
2022/04/28 08:20:07;;;;;;;21.97;5.90;;;46.70;1.00;;;;;;5098065;28;20459;-58
2022/04/28 08:22:34;;;;;;;23.10;6.80;;;47.10;1.00;;;;;;5093105;28;20479;-58
2022/04/28 08:25:02;;;;;;;24.40;7.47;;;47.50;1.00;;;;;;5097480;28;20857;-58
2022/04/28 08:27:29;;;;;;;22.87;6.63;;;47.40;1.00;;;;;;5094238;28;20463;-57
2022/04/28 08:29:56;;;;;;;25.00;6.90;;;47.50;1.00;;;;;;5096293;28;20501;-57
2022/04/28 08:32:22;;;;;;;23.53;6.30;;;47.90;1.00;;;;;;5096043;28;20479;-58
2022/04/28 08:34:49;;;;;;;22.33;5.57;;;47.40;1.00;;;;;;5091575;28;20463;-58
2022/04/28 08:37:16;;;;;;;21.90;5.57;;;47.00;1.00;;;;;;5104853;28;20454;-58
2022/04/28 08:39:43;;;;;;;23.07;6.30;;;46.50;1.00;;;;;;5091737;28;20472;-57
2022/04/28 08:42:15;;;;;;;23.03;6.17;;;44.80;1.00;;;;;;5100359;28;20517;-56
2022/04/28 08:44:44;;;;;;;23.23;6.07;;;44.20;1.00;;;;;;5095774;28;20452;-58
2022/04/28 08:47:11;;;;;;;24.20;7.50;;;44.10;1.00;;;;;;5093608;28;20459;-58
2022/04/28 08:49:42;;;;;;;24.30;7.23;;;43.80;1.00;;;;;;5094376;28;20483;-59
2022/04/28 08:52:10;;;;;;;23.50;6.50;;;44.10;1.00;;;;;;5094440;28;20452;-58
2022/04/28 08:54:39;;;;;;;23.77;6.13;;;44.00;1.00;;;;;;5094959;28;20459;-58
2022/04/28 08:57:06;;;;;;;22.53;5.07;;;43.60;1.00;;;;;;5095898;28;20813;-58
2022/04/28 08:59:34;;;;;;;23.37;5.60;;;43.30;1.00;;;;;;5097053;28;20478;-59
2022/04/28 09:02:01;;;;;;;22.80;5.50;;;43.00;1.00;;;;;;5094951;28;20479;-58
2022/04/28 09:04:28;;;;;;;24.40;5.67;;;43.20;1.00;;;;;;5094179;28;20447;-59
2022/04/28 09:06:57;;;;;;;23.20;5.40;;;43.40;1.00;;;;;;5096042;28;20455;-58
2022/04/28 09:09:26;;;;;;;23.37;5.60;;;42.40;1.00;;;;;;5092051;28;20487;-59
2022/04/28 09:11:57;;;;;;;26.20;5.53;;;41.70;1.00;;;;;;5094729;28;20467;-58
2022/04/28 09:14:24;;;;;;;26.77;5.80;;;41.00;1.00;;;;;;5094364;28;20475;-57
2022/04/28 09:16:54;;;;;;;25.67;5.40;;;40.10;1.00;;;;;;5094527;28;20538;-57
2022/04/28 09:19:25;;;;;;;27.90;7.27;;;40.50;1.00;;;;;;5090880;28;20495;-58
2022/04/28 09:21:53;;;;;;;24.60;6.00;;;41.10;1.00;;;;;;5093106;28;20499;-60
2022/04/28 09:24:20;;;;;;;24.93;5.67;;;40.40;1.00;;;;;;5094638;28;20475;-60
2022/04/28 09:26:48;;;;;;;24.00;5.43;;;39.40;1.00;;;;;;5093471;28;20460;-61
2022/04/28 09:29:16;;;;;;;26.37;7.00;;;38.50;1.00;;;;;;5099757;28;20475;-61
2022/04/28 09:31:45;;;;;;;27.20;6.53;;;38.80;1.00;;;;;;5097215;28;20460;-63
2022/04/28 09:34:14;;;;;;;25.63;5.40;;;40.00;1.00;;;;;;5095274;28;20463;-65
2022/04/28 09:36:43;;;;;;;23.80;5.17;;;41.00;1.00;;;;;;5100492;28;20468;-64
2022/04/28 09:39:14;;;;;;;25.90;5.17;;;40.40;1.00;;;;;;5095584;28;20484;-64
2022/04/28 09:44:25;;;;;;;24.60;5.10;;;38.60;1.00;;;;;;5096305;28;20955;-64
2022/04/28 09:46:52;;;;;;;25.53;5.70;;;38.80;1.00;;;;;;5094786;28;20472;-63
2022/04/28 09:49:23;;;;;;;24.57;5.60;;;40.00;1.00;;;;;;5096181;28;20487;-64
2022/04/28 09:51:57;;;;;;;26.23;4.50;;;40.30;1.00;;;;;;5099215;28;20466;-65
2022/04/28 09:54:29;;;;;;;23.63;4.07;;;41.20;1.00;;;;;;5095498;28;20511;-64
2022/04/28 09:56:56;;;;;;;24.47;5.20;;;41.50;1.00;;;;;;5095666;28;20503;-65
2022/04/28 09:59:23;;;;;;;25.03;5.13;;;40.30;1.00;;;;;;5100216;28;23051;-64
2022/04/28 10:01:51;;;;;;;25.10;5.30;;;40.30;1.00;;;;;;5095369;28;20480;-64
2022/04/28 10:04:17;;;;;;;24.90;5.10;;;39.10;1.00;;;;;;5094504;28;20822;-64
2022/04/28 10:06:46;;;;;;;26.50;4.90;;;37.80;1.00;;;;;;5094840;28;21263;-63
2022/04/28 10:09:13;;;;;;;25.53;5.83;;;37.20;1.00;;;;;;5098638;28;20475;-63
2022/04/28 10:11:41;;;;;;;25.17;4.77;;;36.30;1.00;;;;;;5094839;28;20468;-62
2022/04/28 10:14:10;;;;;;;26.00;5.67;;;36.10;1.00;;;;;;5097955;28;20451;-63
2022/04/28 10:16:41;;;;;;;27.63;5.47;;;37.30;1.00;;;;;;5094779;28;20450;-66
2022/04/28 10:19:12;;;;;;;24.43;4.47;;;38.20;1.00;;;;;;5096349;28;20519;-67
2022/04/28 10:21:50;;;;;;;24.37;4.80;;;38.70;1.00;;;;;;5094400;28;20448;-67
2022/04/28 10:32:56;;;;;;;27.10;5.23;;;31.40;1.00;;;;;;5092247;28;20516;-61
2022/04/28 10:35:41;;;;;;;27.80;6.30;;;29.00;1.00;;;;;;5100091;28;20504;-60
2022/04/28 10:38:14;;;;;;;27.80;5.13;;;27.40;1.00;;;;;;5098426;28;20468;-61
2022/04/28 10:40:42;;;;;;;28.40;6.50;;;26.30;1.00;;;;;;5096953;28;20456;-61
2022/04/28 10:43:28;;;;;;;27.70;4.93;;;25.40;1.00;;;;;;5096496;28;20574;-64
2022/04/28 10:45:57;;;;;;;28.50;7.00;;;24.80;1.00;;;;;;5097637;28;20463;-61
2022/04/28 10:48:32;;;;;;;29.90;7.73;;;24.50;1.00;;;;;;5095301;28;20471;-62
2022/04/28 10:51:10;;;;;;;28.00;5.33;;;24.40;1.00;;;;;;5095093;28;20470;-62
2022/04/28 10:53:58;;;;;;;30.10;7.17;;;24.40;1.00;;;;;;5095092;28;20454;-61
2022/04/28 10:56:25;;;;;;;29.50;6.37;;;23.90;1.00;;;;;;5097543;28;20474;-61
2022/04/28 10:58:57;;;;;;;29.27;6.67;;;23.50;1.00;;;;;;5095106;28;20475;-63
2022/04/28 11:01:27;;;;;;;30.40;7.17;;;23.00;1.00;;;;;;5091139;28;20844;-63
2022/04/28 11:03:56;;;;;;;29.40;6.73;;;22.50;1.00;;;;;;5088951;28;20472;-62
2022/04/28 11:06:27;;;;;;;32.17;6.90;;;22.10;1.00;;;;;;5101243;28;20899;-62
2022/04/28 11:08:56;;;;;;;29.60;5.63;;;21.80;1.00;;;;;;5099909;28;20974;-62
2022/04/28 11:11:28;;;;;;;29.87;7.10;;;21.40;1.00;;;;;;5094787;28;20459;-64
2022/04/28 11:13:57;;;;;;;31.57;6.73;;;21.10;1.00;;;;;;5091045;28;20554;-63
2022/04/28 11:16:25;;;;;;;29.60;7.17;;;20.60;1.00;;;;;;5096560;28;20462;-63
2022/04/28 11:18:53;;;;;;;29.80;6.20;;;20.30;1.00;;;;;;5089637;28;20492;-64
2022/04/28 11:21:20;;;;;;;30.17;6.90;;;20.20;1.00;;;;;;5092734;28;20463;-64
2022/04/28 11:23:48;;;;;;;29.17;6.63;;;20.00;1.00;;;;;;5100373;28;20495;-62
2022/04/28 11:26:19;;;;;;;29.73;6.73;;;20.00;1.60;;;;;;5090973;28;20448;-59
2022/04/28 11:28:46;;;;;;;29.37;6.40;;;20.10;3.00;;;;;;5089754;28;20476;-63
2022/04/28 11:31:15;;;;;;;31.87;6.30;;;20.10;2.90;;;;;;5095879;28;20470;-61
2022/04/28 11:33:45;;;;;;;29.70;5.80;;;20.10;2.70;;;;;;5095961;28;20460;-60
2022/04/28 11:36:20;;;;;;;35.50;8.33;;;20.10;2.70;;;;;;5095624;28;20471;-61
2022/04/28 11:38:56;;;;;;;30.33;6.47;;;20.30;3.20;;;;;;5071467;28;21536;-60
2022/04/28 11:41:30;;;;;;;30.30;6.40;;;20.30;2.20;;;;;;5080595;28;20456;-66
2022/04/28 11:44:05;;;;;;;29.87;7.77;;;20.50;3.50;;;;;;5076392;28;20483;-63
2022/04/28 11:46:31;;;;;;;29.17;6.90;;;20.60;3.10;;;;;;5070011;28;20488;-62
2022/04/28 11:48:58;;;;;;;29.20;6.37;;;20.60;2.80;;;;;;5082878;28;20480;-63
2022/04/28 11:51:25;;;;;;;29.03;5.33;;;20.50;2.40;;;;;;5076554;28;20458;-59
2022/04/28 11:53:53;;;;;;;31.43;6.87;;;20.40;3.50;;;;;;5075083;28;20453;-59
2022/04/28 11:56:22;;;;;;;29.40;6.57;;;20.30;2.90;;;;;;5077494;28;20452;-59
2022/04/28 11:58:53;;;;;;;29.50;5.80;;;20.10;1.80;;;;;;5073266;28;20506;-59
2022/04/28 12:01:21;;;;;;;30.77;7.33;;;20.10;3.30;;;;;;5075151;28;20472;-59
2022/04/28 12:03:53;;;;;;;31.17;6.20;;;19.90;1.80;;;;;;5073628;28;20864;-60
2022/04/28 12:06:20;;;;;;;31.97;8.50;;;19.80;1.60;;;;;;5075593;28;20463;-59
2022/04/28 12:08:55;;;;;;;29.20;5.60;;;19.80;1.90;;;;;;5077404;28;20477;-59
2022/04/28 12:14:26;;;;;;;31.50;7.30;;;19.70;3.00;;;;;;5080415;28;20435;-58
2022/04/28 12:19:54;;;;;;;30.00;5.90;;;19.60;3.30;;;;;;5072647;28;20483;-59
2022/04/28 12:22:30;;;;;;;30.10;6.63;;;19.60;3.60;;;;;;5074200;28;20468;-59
2022/04/28 12:25:06;;;;;;;35.83;6.83;;;19.60;3.60;;;;;;5070721;28;20795;-58
2022/04/28 12:27:45;;;;;;;30.90;6.40;;;19.40;3.40;;;;;;5075199;28;20571;-59
2022/04/28 12:30:15;;;;;;;29.97;6.47;;;19.40;3.60;;;;;;5075229;28;20453;-59
2022/04/28 12:32:44;;;;;;;29.83;5.30;;;19.30;3.60;;;;;;5078067;28;20824;-58
2022/04/28 12:35:11;;;;;;;31.10;5.40;;;19.20;3.90;;;;;;5076879;28;20468;-58
2022/04/28 12:37:39;;;;;;;29.70;6.57;;;19.20;5.50;;;;;;5075401;28;20479;-59
2022/04/28 12:40:07;;;;;;;31.57;6.70;;;19.10;4.80;;;;;;5086482;28;20924;-59
2022/04/28 12:42:45;;;;;;;30.00;6.20;;;19.10;4.70;;;;;;5081913;28;20484;-58
2022/04/28 12:45:13;;;;;;;30.43;6.90;;;19.10;4.70;;;;;;5079956;28;20475;-59
2022/04/28 12:47:42;;;;;;;31.20;6.80;;;19.10;5.10;;;;;;5082330;28;20460;-59
2022/04/28 12:50:23;;;;;;;30.50;6.60;;;19.10;4.80;;;;;;5084270;28;21121;-59
2022/04/28 12:52:50;;;;;;;31.60;7.40;;;19.20;4.80;;;;;;5081959;28;20839;-59
2022/04/28 12:55:19;;;;;;;31.00;6.87;;;19.20;4.50;;;;;;5076831;28;20462;-62
2022/04/28 12:57:47;;;;;;;31.30;6.23;;;19.30;4.80;;;;;;5077752;28;20495;-62
2022/04/28 13:00:18;;;;;;;31.03;6.70;;;19.20;3.50;;;;;;5077761;28;20484;-62
2022/04/28 13:02:50;;;;;;;30.90;6.23;;;19.00;3.80;;;;;;5071074;28;20488;-62
2022/04/28 13:05:20;;;;;;;30.87;7.03;;;18.90;5.00;;;;;;5079138;28;20464;-61
2022/04/28 13:07:47;;;;;;;30.40;7.40;;;18.90;5.70;;;;;;5076331;28;20457;-63
2022/04/28 13:10:15;;;;;;;31.40;7.50;;;19.00;5.40;;;;;;5080269;28;20456;-62
2022/04/28 13:12:41;;;;;;;31.50;6.83;;;19.00;5.50;;;;;;5077598;28;20460;-61
2022/04/28 13:15:09;;;;;;;30.10;6.00;;;18.90;4.20;;;;;;5081041;28;20471;-60
2022/04/28 13:17:37;;;;;;;30.50;7.60;;;18.80;4.60;;;;;;5076144;28;20464;-60
2022/04/28 13:20:06;;;;;;;29.70;6.20;;;18.80;5.70;;;;;;5081440;28;20464;-60
2022/04/28 13:22:33;;;;;;;31.70;8.27;;;18.80;5.80;;;;;;5077209;28;20469;-61
2022/04/28 13:25:00;;;;;;;30.30;6.83;;;18.70;6.40;;;;;;5080470;28;20465;-61